Time;durP1;ratioP1;P1;durP2;ratioP2;P2;SDS_P1;SDS_P2;PMS_P1;PMS_P2;Temp;Humidity;BMP_temperature;BMP_pressure;BME280_temperature;BME280_humidity;BME280_pressure;Samples;Min_cycle;Max_cycle;Signal;HPM_P1;HPM_P2
2023/02/17 00:02:24;;;;;;;44.47;27.23;;;128.30;2252.80;;;;;;5068620;28;20061;-60
2023/02/17 00:04:52;;;;;;;45.42;25.80;;;128.20;2252.80;;;;;;5068989;28;20055;-59
2023/02/17 00:07:18;;;;;;;44.85;24.90;;;128.30;2252.80;;;;;;5068464;28;20033;-60
2023/02/17 00:09:44;;;;;;;31.15;17.92;;;128.20;2252.80;;;;;;5068793;28;20499;-58
2023/02/17 00:12:09;;;;;;;91.90;39.65;;;128.10;2252.80;;;;;;5068344;28;20107;-59
2023/02/17 00:14:37;;;;;;;144.15;59.42;;;128.00;2252.80;;;;;;5070578;28;20082;-58
2023/02/17 00:17:03;;;;;;;91.60;40.85;;;128.10;2252.80;;;;;;5071023;28;20051;-59
2023/02/17 00:19:29;;;;;;;123.22;57.63;;;128.00;2252.80;;;;;;5070589;28;20028;-59
2023/02/17 00:21:57;;;;;;;47.40;26.40;;;128.00;2252.80;;;;;;5070653;28;20024;-60
2023/02/17 00:24:25;;;;;;;186.10;87.65;;;128.00;2252.80;;;;;;5070833;28;20052;-66
2023/02/17 00:26:50;;;;;;;85.32;41.17;;;103.30;2227.20;;;;;;5070528;28;20054;-69
2023/02/17 00:29:16;;;;;;;93.38;45.50;;;103.30;2227.20;;;;;;5070163;28;20032;-66
2023/02/17 00:31:43;;;;;;;86.40;40.50;;;128.00;2252.80;;;;;;5070499;28;20017;-59
2023/02/17 00:34:08;;;;;;;39.15;23.42;;;128.10;2252.80;;;;;;5070380;28;20028;-66
2023/02/17 00:36:34;;;;;;;53.22;28.33;;;128.10;2252.80;;;;;;5070549;28;20024;-66
2023/02/17 00:39:00;;;;;;;47.17;25.67;;;128.20;2252.80;;;;;;5070579;28;20025;-59
2023/02/17 00:41:27;;;;;;;32.08;17.88;;;128.20;2252.80;;;;;;5070201;28;20406;-67
2023/02/17 00:43:53;;;;;;;29.02;17.48;;;128.30;2252.80;;;;;;5070132;28;20053;-67
2023/02/17 00:46:19;;;;;;;24.30;15.27;;;128.40;2252.80;;;;;;5070225;28;20064;-67
2023/02/17 00:48:46;;;;;;;27.38;15.23;;;128.20;2252.80;;;;;;5069987;28;20118;-64
2023/02/17 00:51:12;;;;;;;30.23;18.15;;;128.30;2252.80;;;;;;5070423;28;20158;-67
2023/02/17 00:53:38;;;;;;;28.27;16.75;;;128.20;2252.80;;;;;;5070331;28;20124;-67
2023/02/17 00:56:04;;;;;;;57.00;31.90;;;128.20;2252.80;;;;;;5070383;28;20099;-65
2023/02/17 00:58:30;;;;;;;44.03;22.90;;;128.30;2252.80;;;;;;5070262;28;20405;-65
2023/02/17 01:00:56;;;;;;;36.28;20.95;;;128.00;2252.80;;;;;;5070031;28;20028;-65
2023/02/17 01:03:22;;;;;;;29.08;17.15;;;103.20;2227.20;;;;;;5070257;28;20059;-69
2023/02/17 01:05:48;;;;;;;48.67;27.05;;;103.00;2227.20;;;;;;5070272;28;20111;-63
2023/02/17 01:08:15;;;;;;;58.42;32.72;;;103.20;2227.20;;;;;;5069885;28;20036;-60
2023/02/17 01:10:43;;;;;;;49.22;26.00;;;103.30;2227.20;;;;;;5071478;28;20418;-63
2023/02/17 01:13:09;;;;;;;51.42;26.17;;;103.30;2227.20;;;;;;5073866;28;20050;-68
2023/02/17 01:15:40;;;;;;;62.67;31.17;;;103.30;2227.20;;;;;;5073843;28;20028;-67
2023/02/17 01:18:06;;;;;;;83.68;45.88;;;103.30;2227.20;;;;;;5073751;28;20116;-62
2023/02/17 01:20:36;;;;;;;68.00;37.65;;;128.00;2252.80;;;;;;5073979;28;20020;-65
2023/02/17 01:23:02;;;;;;;126.43;62.05;;;128.10;2252.80;;;;;;5074175;28;20035;-68
2023/02/17 01:25:28;;;;;;;180.95;100.65;;;128.10;2252.80;;;;;;5073893;28;20024;-64
2023/02/17 01:27:53;;;;;;;173.63;95.13;;;128.20;2252.80;;;;;;5073736;28;20035;-67
2023/02/17 01:30:19;;;;;;;57.95;35.17;;;128.30;2252.80;;;;;;5073786;28;20031;-68
2023/02/17 01:32:45;;;;;;;47.20;27.77;;;128.30;2252.80;;;;;;5073590;28;20035;-67
2023/02/17 01:35:11;;;;;;;35.47;20.95;;;128.30;2252.80;;;;;;5073816;28;20055;-68
2023/02/17 01:37:36;;;;;;;40.30;24.77;;;128.10;2252.80;;;;;;5073485;28;20035;-69
2023/02/17 01:40:03;;;;;;;36.90;22.08;;;128.10;2252.80;;;;;;5073669;28;20098;-67
2023/02/17 01:42:28;;;;;;;34.90;20.10;;;128.20;2252.80;;;;;;5073512;28;20573;-65
2023/02/17 01:45:16;;;;;;;32.97;22.40;;;128.20;2252.80;;;;;;5073187;28;20137;-59
2023/02/17 01:47:44;;;;;;;41.53;23.48;;;128.00;2252.80;;;;;;5073788;28;20033;-69
2023/02/17 01:50:10;;;;;;;42.03;26.23;;;128.10;2252.80;;;;;;5073724;28;20024;-68
2023/02/17 01:52:38;;;;;;;44.88;26.92;;;128.00;2252.80;;;;;;5073611;28;20497;-66
2023/02/17 01:55:09;;;;;;;40.58;25.27;;;128.00;2252.80;;;;;;5073239;28;20038;-63
2023/02/17 01:57:39;;;;;;;43.60;28.15;;;128.00;2252.80;;;;;;5073441;28;20029;-67
2023/02/17 02:00:08;;;;;;;54.65;31.20;;;103.30;2227.20;;;;;;5073161;28;20021;-66
2023/02/17 02:02:34;;;;;;;72.20;37.72;;;103.30;2227.20;;;;;;5073410;28;20052;-65
2023/02/17 02:05:00;;;;;;;68.55;33.17;;;128.00;2252.80;;;;;;5073461;28;20043;-66
2023/02/17 02:07:33;;;;;;;37.88;25.20;;;128.00;2252.80;;;;;;5072987;28;20059;-66
2023/02/17 02:09:59;;;;;;;35.35;24.30;;;128.00;2252.80;;;;;;5073174;28;20058;-67
2023/02/17 02:12:33;;;;;;;158.13;77.55;;;103.20;2227.20;;;;;;5072885;28;20028;-67
2023/02/17 02:15:04;;;;;;;56.35;31.00;;;103.20;2227.20;;;;;;5072811;28;20375;-66
2023/02/17 02:17:47;;;;;;;53.47;27.48;;;103.10;2227.20;;;;;;5073039;28;20028;-68
2023/02/17 02:20:50;;;;;;;152.38;77.30;;;102.90;2227.20;;;;;;5073101;28;20116;-65
2023/02/17 02:23:37;;;;;;;167.50;75.68;;;102.80;2227.20;;;;;;5072174;28;20475;-68
2023/02/17 02:26:26;;;;;;;34.35;19.65;;;102.90;2227.20;;;;;;5073008;28;20374;-67
2023/02/17 02:29:09;;;;;;;26.17;15.07;;;102.80;2227.20;;;;;;5072641;28;20028;-62
2023/02/17 02:31:44;;;;;;;308.10;145.03;;;102.70;2227.20;;;;;;5072802;28;20067;-67
2023/02/17 02:34:22;;;;;;;131.90;68.10;;;102.70;2227.20;;;;;;5072875;28;20271;-64
2023/02/17 02:37:03;;;;;;;114.28;52.90;;;102.80;2227.20;;;;;;5072519;28;20029;-67
2023/02/17 02:39:33;;;;;;;27.77;17.38;;;102.90;2227.20;;;;;;5072727;28;20078;-66
2023/02/17 02:42:06;;;;;;;47.55;25.13;;;102.90;2227.20;;;;;;5072691;28;20387;-65
2023/02/17 02:44:32;;;;;;;61.25;29.98;;;102.90;2227.20;;;;;;5072463;28;20052;-64
2023/02/17 02:47:01;;;;;;;44.63;22.88;;;103.00;2227.20;;;;;;5072546;28;20363;-69
2023/02/17 02:49:28;;;;;;;81.57;39.78;;;102.80;2227.20;;;;;;5072476;28;20032;-66
2023/02/17 02:51:55;;;;;;;27.90;16.70;;;102.80;2227.20;;;;;;5072475;28;20017;-66
2023/02/17 02:54:40;;;;;;;29.15;18.95;;;102.70;2227.20;;;;;;5072577;28;20374;-65
2023/02/17 02:57:11;;;;;;;37.97;20.90;;;102.80;2227.20;;;;;;5072484;28;20024;-66
2023/02/17 02:59:58;;;;;;;23.85;13.75;;;102.80;2227.20;;;;;;5072036;28;20021;-69
2023/02/17 03:02:45;;;;;;;39.90;19.73;;;102.70;2227.20;;;;;;5054700;28;20363;-68
2023/02/17 03:05:14;;;;;;;53.97;28.60;;;102.80;2227.20;;;;;;5072346;28;20028;-65
2023/02/17 03:08:02;;;;;;;25.23;14.25;;;102.70;2227.20;;;;;;5072258;28;20029;-62
2023/02/17 03:10:28;;;;;;;41.05;18.92;;;102.80;2227.20;;;;;;5071881;28;20029;-64
2023/02/17 03:12:55;;;;;;;23.98;13.15;;;102.80;2227.20;;;;;;5053701;28;20497;-67
2023/02/17 03:15:33;;;;;;;19.20;12.23;;;102.90;2227.20;;;;;;5072057;28;20089;-66
2023/02/17 03:18:01;;;;;;;93.82;52.33;;;102.90;2227.20;;;;;;5071781;28;20036;-69
2023/02/17 03:20:31;;;;;;;43.20;23.38;;;102.80;2227.20;;;;;;5071720;28;20356;-65
2023/02/17 03:22:57;;;;;;;53.88;27.33;;;102.90;2227.20;;;;;;5071680;28;20062;-68
2023/02/17 03:25:23;;;;;;;24.33;13.35;;;102.90;2227.20;;;;;;5071851;28;20166;-67
2023/02/17 03:27:49;;;;;;;22.98;12.65;;;102.90;2227.20;;;;;;5071458;28;20534;-67
2023/02/17 03:30:15;;;;;;;16.05;10.50;;;103.00;2227.20;;;;;;5071660;28;20020;-60
2023/02/17 03:32:41;;;;;;;29.65;16.05;;;102.90;2227.20;;;;;;5071538;28;20387;-65
2023/02/17 03:35:08;;;;;;;31.75;18.98;;;103.00;2227.20;;;;;;5070451;28;20027;-66
2023/02/17 03:37:33;;;;;;;37.53;21.83;;;103.10;2227.20;;;;;;5071609;28;20025;-68
2023/02/17 03:39:59;;;;;;;34.70;21.00;;;103.00;2227.20;;;;;;5071343;28;20047;-67
2023/02/17 03:42:26;;;;;;;74.20;38.25;;;103.10;2227.20;;;;;;5071263;28;20036;-67
2023/02/17 03:44:51;;;;;;;46.05;25.05;;;103.00;2227.20;;;;;;5071548;28;20044;-61
2023/02/17 03:47:17;;;;;;;45.53;24.60;;;103.10;2227.20;;;;;;5071366;28;20425;-63
2023/02/17 03:49:43;;;;;;;33.00;16.02;;;103.10;2227.20;;;;;;5071170;28;20119;-68
2023/02/17 03:52:09;;;;;;;29.15;15.48;;;103.00;2227.20;;;;;;5071072;28;20082;-68
2023/02/17 03:54:35;;;;;;;69.35;35.63;;;103.00;2227.20;;;;;;5071046;28;20060;-62
2023/02/17 03:57:00;;;;;;;26.73;14.63;;;102.90;2227.20;;;;;;5071177;28;20060;-63
2023/02/17 03:59:27;;;;;;;136.50;68.45;;;102.80;2227.20;;;;;;5070846;28;20024;-69
2023/02/17 04:01:52;;;;;;;42.80;23.23;;;102.70;2227.20;;;;;;5071185;28;20112;-64
2023/02/17 04:04:18;;;;;;;33.53;17.17;;;102.70;2227.20;;;;;;5070692;28;20107;-67
2023/02/17 04:06:44;;;;;;;43.55;20.50;;;102.60;2227.20;;;;;;5071076;28;20031;-69
2023/02/17 04:09:10;;;;;;;173.95;86.18;;;102.60;2227.20;;;;;;5071016;28;20390;-68
2023/02/17 04:11:36;;;;;;;361.67;204.30;;;102.60;2227.20;;;;;;5070573;28;20025;-66
2023/02/17 04:14:01;;;;;;;128.10;95.60;;;102.50;2227.20;;;;;;5070792;28;20032;-66
2023/02/17 04:16:27;;;;;;;41.08;32.05;;;102.50;2227.20;;;;;;5070718;28;20527;-68
2023/02/17 04:18:53;;;;;;;53.95;45.15;;;102.40;2227.20;;;;;;5070828;28;20033;-65
2023/02/17 04:21:18;;;;;;;25.20;17.92;;;102.40;2227.20;;;;;;5070616;28;20267;-67
2023/02/17 04:23:44;;;;;;;28.95;19.77;;;102.40;2227.20;;;;;;5070770;28;20033;-68
2023/02/17 04:26:10;;;;;;;19.52;13.10;;;102.40;2227.20;;;;;;5070852;28;20107;-67
2023/02/17 04:28:40;;;;;;;19.60;12.15;;;102.40;2227.20;;;;;;5070347;28;20080;-61
2023/02/17 04:31:06;;;;;;;18.02;11.07;;;102.40;2227.20;;;;;;5070481;28;20021;-64
2023/02/17 04:33:32;;;;;;;19.70;13.10;;;77.70;2227.20;;;;;;5070662;28;20490;-66
2023/02/17 04:35:59;;;;;;;22.08;15.30;;;77.60;2227.20;;;;;;5070599;28;20107;-69
2023/02/17 04:38:29;;;;;;;19.95;12.38;;;77.60;2227.20;;;;;;5070551;28;20028;-60
2023/02/17 04:40:56;;;;;;;24.10;13.50;;;77.60;2227.20;;;;;;5070315;28;20021;-68
2023/02/17 04:43:22;;;;;;;32.25;22.50;;;77.60;2227.20;;;;;;5070215;28;20044;-63
2023/02/17 04:45:48;;;;;;;108.05;68.55;;;77.70;2227.20;;;;;;5070144;28;20024;-68
2023/02/17 04:48:14;;;;;;;154.55;92.47;;;77.70;2227.20;;;;;;5070451;28;20552;-66
2023/02/17 04:50:40;;;;;;;204.80;121.47;;;102.40;2227.20;;;;;;5070621;28;20103;-65
2023/02/17 04:53:07;;;;;;;130.73;69.93;;;102.40;2227.20;;;;;;5070155;28;20052;-65
2023/02/17 04:55:33;;;;;;;129.77;79.18;;;102.40;2227.20;;;;;;5052177;28;20029;-61
2023/02/17 04:57:58;;;;;;;80.72;50.40;;;102.50;2227.20;;;;;;5070193;28;20082;-64
2023/02/17 05:00:24;;;;;;;56.17;28.80;;;102.50;2227.20;;;;;;5070395;28;20032;-62
2023/02/17 05:02:50;;;;;;;61.97;34.50;;;102.50;2227.20;;;;;;5070388;28;20036;-68
2023/02/17 05:05:17;;;;;;;32.13;18.48;;;102.50;2227.20;;;;;;5070123;28;20025;-63
2023/02/17 05:07:44;;;;;;;34.75;23.67;;;102.50;2227.20;;;;;;5070315;28;20028;-65
2023/02/17 05:10:12;;;;;;;61.72;38.53;;;102.50;2227.20;;;;;;5070415;28;20032;-68
2023/02/17 05:12:39;;;;;;;39.67;23.17;;;102.60;2227.20;;;;;;5069990;28;20044;-64
2023/02/17 05:15:05;;;;;;;78.55;45.28;;;102.60;2227.20;;;;;;5070298;28;20174;-58
2023/02/17 05:17:31;;;;;;;126.13;73.78;;;102.50;2227.20;;;;;;5070223;28;20025;-66
2023/02/17 05:19:58;;;;;;;72.07;36.05;;;102.60;2227.20;;;;;;5070051;28;20116;-63
2023/02/17 05:22:24;;;;;;;119.40;64.60;;;102.60;2227.20;;;;;;5070394;28;20028;-63
2023/02/17 05:24:49;;;;;;;49.13;25.75;;;102.60;2227.20;;;;;;5070166;28;20028;-69
2023/02/17 05:27:15;;;;;;;29.67;18.92;;;102.60;2227.20;;;;;;5070175;28;20031;-63
2023/02/17 05:29:41;;;;;;;25.20;15.30;;;102.60;2227.20;;;;;;5069955;28;20064;-66
2023/02/17 05:32:07;;;;;;;40.78;21.95;;;102.70;2227.20;;;;;;5069873;28;20111;-67
2023/02/17 05:34:32;;;;;;;136.85;83.85;;;102.60;2227.20;;;;;;5070273;28;20032;-62
2023/02/17 05:36:58;;;;;;;119.13;80.00;;;102.60;2227.20;;;;;;5069906;28;20021;-64
2023/02/17 05:39:24;;;;;;;78.50;53.63;;;102.70;2227.20;;;;;;5069909;28;20119;-67
2023/02/17 05:41:49;;;;;;;76.90;50.25;;;102.70;2227.20;;;;;;5069735;28;20058;-64
2023/02/17 05:44:15;;;;;;;45.78;28.00;;;102.70;2227.20;;;;;;5069474;28;20114;-64
2023/02/17 05:46:41;;;;;;;37.05;25.90;;;102.80;2227.20;;;;;;5069991;28;20021;-63
2023/02/17 05:49:07;;;;;;;18.52;12.82;;;102.80;2227.20;;;;;;5069621;28;20037;-66
2023/02/17 05:51:32;;;;;;;18.15;11.55;;;102.80;2227.20;;;;;;5069993;28;20074;-64
2023/02/17 05:53:58;;;;;;;13.98;9.77;;;102.80;2227.20;;;;;;5069709;28;20115;-66
2023/02/17 05:56:24;;;;;;;86.68;52.92;;;102.80;2227.20;;;;;;5069956;28;20016;-65
2023/02/17 05:58:49;;;;;;;72.00;49.88;;;102.80;2227.20;;;;;;5072821;28;20024;-68
2023/02/17 06:01:15;;;;;;;78.78;51.58;;;102.90;2227.20;;;;;;5073404;28;20375;-66
2023/02/17 06:03:41;;;;;;;47.40;33.17;;;103.00;2227.20;;;;;;5073419;28;20025;-65
2023/02/17 06:06:07;;;;;;;118.40;86.75;;;103.20;2227.20;;;;;;5073370;28;20020;-61
2023/02/17 06:08:33;;;;;;;46.85;38.35;;;103.20;2227.20;;;;;;5073322;28;20059;-63
2023/02/17 06:10:59;;;;;;;403.77;159.68;;;103.10;2227.20;;;;;;5073171;28;20450;-65
2023/02/17 06:13:25;;;;;;;213.60;93.78;;;103.30;2227.20;;;;;;5073056;28;20057;-65
2023/02/17 06:15:50;;;;;;;176.18;75.60;;;128.00;2252.80;;;;;;5073174;28;20441;-67
2023/02/17 06:18:16;;;;;;;87.50;36.45;;;128.00;2252.80;;;;;;5073187;28;20525;-63
2023/02/17 06:20:42;;;;;;;169.00;78.03;;;128.10;2252.80;;;;;;5073211;28;20074;-68
2023/02/17 06:23:08;;;;;;;67.60;35.83;;;128.00;2252.80;;;;;;5072715;28;20036;-65
2023/02/17 06:25:34;;;;;;;103.75;52.60;;;128.10;2252.80;;;;;;5073188;28;20288;-65
2023/02/17 06:28:00;;;;;;;177.88;93.97;;;103.30;2227.20;;;;;;5073015;28;20043;-64
2023/02/17 06:30:25;;;;;;;429.02;243.95;;;128.10;2252.80;;;;;;5054440;28;20029;-62
2023/02/17 06:32:51;;;;;;;104.47;58.03;;;128.20;2252.80;;;;;;5072906;28;20052;-63
2023/02/17 06:35:17;;;;;;;75.95;45.55;;;128.30;2252.80;;;;;;5072799;28;20052;-64
2023/02/17 06:37:43;;;;;;;32.63;20.98;;;128.20;2252.80;;;;;;5072736;28;20027;-66
2023/02/17 06:40:09;;;;;;;47.55;29.67;;;128.10;2252.80;;;;;;5072586;28;20035;-65
2023/02/17 06:42:35;;;;;;;236.88;119.85;;;128.30;2252.80;;;;;;5072504;28;20089;-62
2023/02/17 06:45:04;;;;;;;302.58;149.98;;;128.30;2252.80;;;;;;5072223;28;20502;-63
2023/02/17 06:47:33;;;;;;;339.38;170.05;;;128.50;2252.80;;;;;;5072640;28;20459;-66
2023/02/17 06:49:59;;;;;;;87.72;48.13;;;128.50;2252.80;;;;;;5073146;28;20033;-63
2023/02/17 06:52:25;;;;;;;60.85;41.22;;;128.50;2252.80;;;;;;5072402;28;20383;-63
2023/02/17 06:54:50;;;;;;;40.92;29.50;;;128.50;2252.80;;;;;;5072511;28;20024;-63
2023/02/17 06:57:17;;;;;;;64.80;41.05;;;128.50;2252.80;;;;;;5072093;28;20033;-65
2023/02/17 06:59:43;;;;;;;55.50;35.50;;;128.60;2252.80;;;;;;5072186;28;20020;-65
2023/02/17 07:02:13;;;;;;;31.70;19.48;;;128.50;2252.80;;;;;;5072225;28;20031;-63
2023/02/17 07:04:39;;;;;;;41.22;26.25;;;128.50;2252.80;;;;;;5072072;28;20471;-64
2023/02/17 07:07:05;;;;;;;31.52;20.65;;;128.70;2252.80;;;;;;5071855;28;20386;-63
2023/02/17 07:09:31;;;;;;;32.50;21.73;;;128.80;2252.80;;;;;;5071969;28;20043;-64
2023/02/17 07:11:56;;;;;;;50.13;30.08;;;153.60;2252.80;;;;;;5072044;28;20431;-62
2023/02/17 07:14:25;;;;;;;26.25;17.63;;;153.70;2252.80;;;;;;5072026;28;20032;-64
2023/02/17 07:16:51;;;;;;;85.85;58.95;;;153.90;2252.80;;;;;;5071758;28;20039;-64
2023/02/17 07:19:17;;;;;;;117.93;74.22;;;154.00;2252.80;;;;;;5071838;28;20029;-64
2023/02/17 07:21:43;;;;;;;76.03;48.85;;;154.10;2252.80;;;;;;5071982;28;20046;-63
2023/02/17 07:24:09;;;;;;;46.38;30.75;;;154.50;2252.80;;;;;;5071729;28;20158;-65
2023/02/17 07:26:36;;;;;;;42.55;27.85;;;154.10;2252.80;;;;;;5071533;28;20025;-62
2023/02/17 07:29:02;;;;;;;104.47;62.00;;;154.20;2252.80;;;;;;5071670;28;20040;-61
2023/02/17 07:31:28;;;;;;;47.20;32.22;;;154.30;2252.80;;;;;;5071783;28;20436;-65
2023/02/17 07:33:54;;;;;;;46.35;31.45;;;154.40;2252.80;;;;;;5071611;28;20064;-62
2023/02/17 07:36:19;;;;;;;28.05;18.35;;;154.50;2252.80;;;;;;5071788;28;20104;-64
2023/02/17 07:38:45;;;;;;;103.07;70.05;;;179.20;2252.80;;;;;;5071424;28;20025;-63
2023/02/17 07:41:14;;;;;;;33.85;23.48;;;179.40;2252.80;;;;;;5071383;28;20112;-65
2023/02/17 07:43:39;;;;;;;37.47;25.42;;;179.50;2252.80;;;;;;5071460;28;20407;-63
2023/02/17 07:46:07;;;;;;;30.92;20.50;;;179.70;2252.80;;;;;;5071061;28;20024;-65
2023/02/17 07:48:32;;;;;;;39.38;26.85;;;205.60;2252.80;;;;;;5071462;28;20036;-64
2023/02/17 07:51:10;;;;;;;35.35;25.17;;;256.40;2201.60;;;;;;5071025;28;20043;-64
2023/02/17 07:53:36;;;;;;;31.83;24.77;;;307.50;2048.00;;;;;;5071121;28;20024;-64
2023/02/17 07:56:04;;;;;;;31.30;24.13;;;333.10;1971.20;;;;;;5071109;28;20088;-62
2023/02/17 07:58:31;;;;;;;35.75;25.65;;;359.30;1868.80;;;;;;5070975;28;20078;-64
2023/02/17 08:00:57;;;;;;;29.02;24.15;;;359.20;1817.60;;;;;;5070892;28;20031;-65
2023/02/17 08:03:23;;;;;;;28.50;23.13;;;384.70;1740.80;;;;;;5071214;28;20029;-63
2023/02/17 08:05:50;;;;;;;27.95;20.02;;;410.00;1715.20;;;;;;5070812;28;20024;-66
2023/02/17 08:13:45;;;;;;;30.20;23.17;;;461.50;1561.60;;;;;;5071068;28;20086;-62
2023/02/17 08:16:11;;;;;;;33.70;24.30;;;487.30;1459.20;;;;;;5070707;28;20426;-67
2023/02/17 08:18:37;;;;;;;31.00;23.30;;;512.60;1433.60;;;;;;5070653;28;20056;-66
2023/02/17 08:21:03;;;;;;;22.95;20.42;;;512.70;1408.00;;;;;;5070327;28;20486;-67
2023/02/17 08:23:29;;;;;;;43.15;35.83;;;537.70;1408.00;;;;;;5070480;28;20028;-66
2023/02/17 08:25:58;;;;;;;240.68;165.25;;;537.80;1408.00;;;;;;5070535;28;20058;-63
2023/02/17 08:28:24;;;;;;;72.70;58.28;;;512.80;1382.40;;;;;;5070784;28;20127;-65
2023/02/17 08:30:49;;;;;;;156.57;143.30;;;538.00;1408.00;;;;;;5070487;28;20107;-63
2023/02/17 08:33:17;;;;;;;67.72;61.17;;;538.50;1382.40;;;;;;5070487;28;20036;-68
2023/02/17 08:35:44;;;;;;;45.45;41.00;;;563.70;1331.20;;;;;;5070431;28;20019;-65
2023/02/17 08:38:10;;;;;;;17.95;15.80;;;563.80;1305.60;;;;;;5070582;28;20032;-66
2023/02/17 08:40:36;;;;;;;19.30;17.25;;;564.00;1280.00;;;;;;5070397;28;20020;-67
2023/02/17 08:43:01;;;;;;;17.67;15.85;;;563.70;1280.00;;;;;;5070561;28;20041;-67
2023/02/17 08:45:27;;;;;;;29.85;26.85;;;564.10;1254.40;;;;;;5070129;28;20033;-67
2023/02/17 08:47:53;;;;;;;26.40;23.65;;;589.10;1254.40;;;;;;5070529;28;20447;-63
2023/02/17 08:50:19;;;;;;;44.42;40.33;;;615.30;1203.20;;;;;;5070416;28;20620;-61
2023/02/17 08:52:45;;;;;;;26.63;24.00;;;665.90;1152.00;;;;;;5070277;28;20043;-60
2023/02/17 08:55:12;;;;;;;24.70;22.20;;;691.70;1049.60;;;;;;5070757;28;20028;-61
2023/02/17 08:57:38;;;;;;;16.95;15.23;;;691.50;1075.20;;;;;;5070240;28;20020;-60
2023/02/17 09:00:07;;;;;;;22.33;19.95;;;691.70;1049.60;;;;;;5069988;28;20017;-59
2023/02/17 09:02:33;;;;;;;30.95;27.98;;;716.90;1049.60;;;;;;5070286;28;20032;-61
2023/02/17 09:04:59;;;;;;;42.45;36.65;;;717.60;998.40;;;;;;5070066;28;20036;-60
2023/02/17 09:07:25;;;;;;;29.15;26.27;;;743.00;1024.00;;;;;;5070017;28;20139;-61
2023/02/17 09:09:50;;;;;;;43.75;38.50;;;743.20;998.40;;;;;;5070136;28;20487;-61
2023/02/17 09:12:16;;;;;;;43.58;38.90;;;768.10;972.80;;;;;;5069975;28;20024;-62
2023/02/17 09:14:42;;;;;;;41.47;37.08;;;717.00;1024.00;;;;;;5070097;28;20064;-60
2023/02/17 09:17:09;;;;;;;54.75;48.97;;;691.50;1024.00;;;;;;5070013;28;20024;-62
2023/02/17 09:19:38;;;;;;;53.53;47.15;;;665.90;1075.20;;;;;;5070065;28;20439;-61
2023/02/17 09:22:03;;;;;;;51.58;44.80;;;666.30;1075.20;;;;;;5070108;28;20028;-62
2023/02/17 09:24:31;;;;;;;53.53;46.20;;;640.90;1075.20;;;;;;5069806;28;20081;-62
2023/02/17 09:26:57;;;;;;;66.55;54.30;;;666.20;1075.20;;;;;;5069971;28;20025;-61
2023/02/17 09:29:23;;;;;;;55.88;49.88;;;640.10;1100.80;;;;;;5070017;28;20020;-61
2023/02/17 09:31:48;;;;;;;64.35;55.88;;;614.50;1152.00;;;;;;5069799;28;20338;-61
2023/02/17 09:34:14;;;;;;;68.70;61.60;;;614.60;1177.60;;;;;;5073473;28;20094;-60
2023/02/17 09:36:41;;;;;;;67.57;60.22;;;615.10;1152.00;;;;;;5073503;28;20467;-61
2023/02/17 09:39:08;;;;;;;75.80;64.85;;;589.50;1203.20;;;;;;5073384;28;20040;-61
2023/02/17 09:41:41;;;;;;;73.88;57.30;;;588.80;1254.40;;;;;;5073418;28;20383;-61
2023/02/17 09:44:23;;;;;;;58.25;49.22;;;512.80;1280.00;;;;;;5073421;28;20041;-60
2023/02/17 09:47:04;;;;;;;18.15;14.68;;;512.10;1305.60;;;;;;5073368;28;20052;-62
2023/02/17 09:49:44;;;;;;;29.40;23.13;;;487.00;1305.60;;;;;;5073634;28;20033;-61
2023/02/17 09:52:22;;;;;;;20.77;16.20;;;486.40;1356.80;;;;;;5073491;28;20032;-60
2023/02/17 09:55:00;;;;;;;15.70;11.98;;;461.30;1356.80;;;;;;5073201;28;20025;-61
2023/02/17 09:57:31;;;;;;;12.68;10.90;;;461.00;1382.40;;;;;;5073397;28;20020;-61
2023/02/17 10:00:06;;;;;;;15.98;12.15;;;461.00;1382.40;;;;;;5073309;28;20034;-61
2023/02/17 10:02:40;;;;;;;36.67;24.42;;;460.90;1408.00;;;;;;5073276;28;20116;-61
2023/02/17 10:05:09;;;;;;;28.92;17.77;;;436.10;1408.00;;;;;;5073176;28;20028;-60
2023/02/17 10:07:42;;;;;;;30.30;21.25;;;435.90;1408.00;;;;;;5073092;28;20478;-61
2023/02/17 10:10:14;;;;;;;;;;;435.80;1433.60;;;;;;5073448;28;20028;-61
2023/02/17 10:12:45;;;;;;;22.52;14.02;;;435.70;1433.60;;;;;;5073213;28;19913;-61
2023/02/17 10:15:22;;;;;;;29.60;20.33;;;435.40;1459.20;;;;;;5073549;28;20033;-61
2023/02/17 10:17:59;;;;;;;22.17;16.33;;;435.50;1459.20;;;;;;5072976;28;20067;-61
2023/02/17 10:20:34;;;;;;;15.55;12.57;;;435.40;1459.20;;;;;;5072936;28;20020;-61
2023/02/17 10:23:21;;;;;;;20.45;11.15;;;435.50;1459.20;;;;;;5073117;28;20032;-61
2023/02/17 10:26:13;;;;;;;22.73;11.07;;;435.60;1459.20;;;;;;5072888;28;20030;-60
2023/02/17 10:29:06;;;;;;;15.32;10.27;;;435.60;1459.20;;;;;;5072711;28;20379;-61
2023/02/17 10:31:38;;;;;;;20.25;12.18;;;435.20;1484.80;;;;;;5072889;28;20062;-61
2023/02/17 10:34:10;;;;;;;14.10;9.10;;;435.20;1459.20;;;;;;5072844;28;20024;-60
2023/02/17 10:36:42;;;;;;;14.25;9.57;;;435.30;1459.20;;;;;;5072895;28;20100;-61
2023/02/17 10:39:29;;;;;;;15.82;10.25;;;435.20;1484.80;;;;;;5072658;28;20040;-61
2023/02/17 10:41:55;;;;;;;18.58;11.05;;;435.30;1459.20;;;;;;5072563;28;20020;-62
2023/02/17 10:44:23;;;;;;;23.70;14.52;;;435.30;1484.80;;;;;;5071998;28;20052;-60
2023/02/17 10:46:51;;;;;;;24.25;16.73;;;435.40;1484.80;;;;;;5072508;28;20027;-62
2023/02/17 10:49:33;;;;;;;16.17;12.25;;;435.40;1510.40;;;;;;5072310;28;20039;-61
2023/02/17 10:52:23;;;;;;;13.27;10.02;;;410.20;1510.40;;;;;;5072565;28;20056;-61
2023/02/17 10:54:58;;;;;;;24.05;14.32;;;409.90;1536.00;;;;;;5072202;28;20032;-60
2023/02/17 10:57:31;;;;;;;21.52;13.02;;;410.30;1536.00;;;;;;5072364;28;20031;-61
2023/02/17 10:59:57;;;;;;;23.03;13.83;;;410.30;1510.40;;;;;;5058898;28;20064;-61
2023/02/17 11:02:28;;;;;;;19.88;13.32;;;410.30;1510.40;;;;;;5052895;28;20033;-61
2023/02/17 11:04:54;;;;;;;16.55;13.35;;;410.30;1510.40;;;;;;5052566;28;20650;-60
2023/02/17 11:07:31;;;;;;;18.83;12.25;;;410.00;1536.00;;;;;;5052468;28;20471;-60
2023/02/17 11:10:00;;;;;;;16.80;9.95;;;410.00;1536.00;;;;;;5052352;28;20029;-61
2023/02/17 11:12:32;;;;;;;34.08;29.17;;;410.30;1536.00;;;;;;5052108;28;20107;-61
2023/02/17 11:15:02;;;;;;;15.02;10.52;;;410.30;1510.40;;;;;;5052012;28;20036;-61
2023/02/17 11:17:38;;;;;;;16.77;13.13;;;410.20;1510.40;;;;;;5051843;28;20025;-60
2023/02/17 11:20:29;;;;;;;14.05;9.60;;;410.20;1510.40;;;;;;5051811;28;20076;-61
2023/02/17 11:23:06;;;;;;;15.93;11.00;;;410.30;1510.40;;;;;;5033966;28;20021;-61
2023/02/17 11:25:36;;;;;;;21.13;17.02;;;410.20;1536.00;;;;;;5052014;28;20059;-60
2023/02/17 11:28:06;;;;;;;18.13;13.48;;;410.50;1510.40;;;;;;5051913;28;20025;-61
2023/02/17 11:30:33;;;;;;;16.08;10.80;;;410.50;1510.40;;;;;;5051653;28;20013;-61
2023/02/17 11:33:10;;;;;;;9.98;8.82;;;410.10;1536.00;;;;;;5051714;28;20032;-61
2023/02/17 11:35:36;;;;;;;14.45;8.65;;;410.00;1536.00;;;;;;5051570;28;20025;-61
2023/02/17 11:38:13;;;;;;;13.88;11.15;;;410.00;1536.00;;;;;;5051640;28;20029;-61
2023/02/17 11:40:50;;;;;;;15.55;11.75;;;410.20;1536.00;;;;;;5051363;28;20048;-61
2023/02/17 11:43:18;;;;;;;13.05;10.02;;;410.20;1510.40;;;;;;5051183;28;20104;-66
2023/02/17 11:45:54;;;;;;;15.10;13.48;;;410.40;1510.40;;;;;;5051203;28;20431;-60
2023/02/17 11:48:41;;;;;;;19.95;10.35;;;410.40;1484.80;;;;;;5051294;28;20052;-61
2023/02/17 11:51:45;;;;;;;33.25;23.10;;;410.30;1510.40;;;;;;5051140;28;20041;-61
2023/02/17 11:54:19;;;;;;;40.08;24.42;;;410.00;1561.60;;;;;;5051243;28;20056;-60
2023/02/17 11:57:15;;;;;;;32.58;22.65;;;410.00;1587.20;;;;;;5050662;28;20103;-60
2023/02/17 12:00:11;;;;;;;31.27;21.70;;;410.10;1587.20;;;;;;5051368;28;20447;-61
2023/02/17 12:03:14;;;;;;;27.75;21.50;;;410.00;1587.20;;;;;;5051118;28;20079;-61
2023/02/17 12:06:08;;;;;;;27.58;20.13;;;410.20;1587.20;;;;;;5051406;28;20032;-61
2023/02/17 12:08:44;;;;;;;33.63;23.50;;;410.30;1561.60;;;;;;5051301;28;20479;-61
2023/02/17 12:11:21;;;;;;;30.60;20.30;;;410.20;1561.60;;;;;;5050872;28;20029;-61
2023/02/17 12:13:47;;;;;;;30.33;19.58;;;410.20;1587.20;;;;;;5051092;28;20376;-60
2023/02/17 12:16:26;;;;;;;29.15;19.20;;;410.20;1587.20;;;;;;5051031;28;20017;-61